createdAt,value
2016-11-26T00:00:47.986Z,0
2016-11-26T00:02:03.101Z,0
2016-11-26T00:03:17.965Z,0
2016-11-26T00:04:32.627Z,0
2016-11-26T00:05:47.656Z,0
2016-11-26T00:07:02.811Z,0
2016-11-26T00:08:20.526Z,0
2016-11-26T00:09:36.216Z,0
2016-11-26T00:10:52.145Z,0
2016-11-26T00:12:07.036Z,0
2016-11-26T00:13:18.890Z,0
2016-11-26T00:14:33.885Z,0
2016-11-26T00:15:48.466Z,0
2016-11-26T00:17:03.492Z,0
2016-11-26T00:18:18.847Z,0
2016-11-26T00:19:32.341Z,0
2016-11-26T00:20:48.760Z,0
2016-11-26T00:22:02.096Z,0
2016-11-26T00:23:18.430Z,0
2016-11-26T00:24:33.522Z,0
2016-11-26T00:25:50.037Z,0
2016-11-26T00:27:04.480Z,0
2016-11-26T00:28:18.232Z,0
2016-11-26T00:29:35.020Z,0
2016-11-26T00:30:50.891Z,0
2016-11-26T00:32:05.600Z,0
2016-11-26T00:33:17.761Z,0
2016-11-26T00:34:32.338Z,0
2016-11-26T00:35:45.525Z,0
2016-11-26T00:36:59.358Z,0
2016-11-26T00:38:14.088Z,0
2016-11-26T00:39:30.943Z,0
2016-11-26T00:40:46.790Z,0
2016-11-26T00:42:02.924Z,0
2016-11-26T00:43:19.675Z,0
2016-11-26T00:44:34.527Z,0
2016-11-26T00:45:51.390Z,0
2016-11-26T00:47:04.875Z,0
2016-11-26T00:48:20.508Z,0
2016-11-26T00:49:36.993Z,0
2016-11-26T00:50:51.925Z,0
2016-11-26T00:52:06.472Z,0
2016-11-26T00:53:22.461Z,0
2016-11-26T00:54:35.690Z,0
2016-11-26T00:55:50.215Z,0
2016-11-26T00:57:05.952Z,0
2016-11-26T00:58:20.915Z,0
2016-11-26T00:59:35.325Z,0
2016-11-26T01:00:45.932Z,0
2016-11-26T01:02:02.171Z,0
2016-11-26T01:03:19.024Z,0
2016-11-26T01:04:33.865Z,0
2016-11-26T01:05:49.551Z,0
2016-11-26T01:07:05.444Z,0
2016-11-26T01:08:19.993Z,0
2016-11-26T01:09:35.432Z,0
2016-11-26T01:10:51.601Z,0
2016-11-26T01:12:07.640Z,0
2016-11-26T01:13:22.247Z,0
2016-11-26T01:14:38.965Z,0
2016-11-26T01:15:52.681Z,0
2016-11-26T01:17:09.783Z,0
2016-11-26T01:18:24.586Z,0
2016-11-26T01:19:40.723Z,0
2016-11-26T01:20:56.632Z,0
2016-11-26T01:22:13.079Z,0
2016-11-26T01:23:28.043Z,0
2016-11-26T01:24:43.683Z,0
2016-11-26T01:26:00.655Z,0
2016-11-26T01:27:16.170Z,0
2016-11-26T01:28:30.987Z,0
2016-11-26T01:29:43.785Z,0
2016-11-26T01:30:58.853Z,0
2016-11-26T01:32:12.163Z,0
2016-11-26T01:33:26.678Z,0
2016-11-26T01:34:42.858Z,0
2016-11-26T01:35:56.012Z,0
2016-11-26T01:37:12.486Z,0
2016-11-26T01:38:29.317Z,0
2016-11-26T01:39:45.469Z,0
2016-11-26T01:41:00.294Z,0
2016-11-26T01:42:16.040Z,0
2016-11-26T01:43:32.602Z,0
2016-11-26T01:44:46.013Z,0
2016-11-26T01:46:02.144Z,0
2016-11-26T01:47:18.292Z,0
2016-11-26T01:48:34.873Z,0
2016-11-26T01:49:50.087Z,0
2016-11-26T01:51:03.911Z,0
2016-11-26T01:52:18.325Z,0
2016-11-26T01:53:34.817Z,0
2016-11-26T01:54:50.236Z,0
2016-11-26T01:56:03.625Z,0
2016-11-26T01:57:18.701Z,0
2016-11-26T01:58:33.376Z,0
2016-11-26T01:59:48.460Z,0
2016-11-26T02:01:03.025Z,0
2016-11-26T02:02:17.535Z,0
2016-11-26T02:03:32.634Z,0
2016-11-26T02:04:47.199Z,0
2016-11-26T02:06:02.267Z,0
2016-11-26T02:07:17.316Z,0
2016-11-26T02:08:32.147Z,0
2016-11-26T02:09:48.274Z,0
2016-11-26T02:11:04.666Z,0
2016-11-26T02:12:20.001Z,0
2016-11-26T02:13:36.439Z,0
2016-11-26T02:14:51.179Z,0
2016-11-26T02:16:04.591Z,0
2016-11-26T02:17:20.899Z,0
2016-11-26T02:18:33.933Z,0
2016-11-26T02:19:48.865Z,0
2016-11-26T02:21:03.311Z,0
2016-11-26T02:22:19.203Z,0
2016-11-26T02:23:35.677Z,0
2016-11-26T02:24:51.155Z,0
2016-11-26T02:26:04.233Z,0
2016-11-26T02:27:20.369Z,0
2016-11-26T02:28:35.598Z,0
2016-11-26T02:29:50.524Z,0
2016-11-26T02:31:06.013Z,0
2016-11-26T02:32:20.352Z,0
2016-11-26T02:33:36.631Z,0
2016-11-26T02:34:51.567Z,0
2016-11-26T02:36:05.122Z,0
2016-11-26T02:37:19.530Z,0
2016-11-26T02:38:35.185Z,0
2016-11-26T02:39:52.023Z,0
2016-11-26T02:41:06.778Z,0
2016-11-26T02:42:20.112Z,0
2016-11-26T02:43:36.283Z,0
2016-11-26T02:44:52.315Z,0
2016-11-26T02:46:09.039Z,0
2016-11-26T02:47:25.110Z,0
2016-11-26T02:48:37.278Z,0
2016-11-26T02:49:50.606Z,0
2016-11-26T02:51:05.244Z,0
2016-11-26T02:52:19.772Z,0
2016-11-26T02:53:35.253Z,0
2016-11-26T02:54:50.741Z,0
2016-11-26T02:56:06.618Z,0
2016-11-26T02:57:21.183Z,0
2016-11-26T02:58:32.940Z,0
2016-11-26T02:59:47.799Z,0
2016-11-26T03:01:04.187Z,0
2016-11-26T03:02:18.920Z,0
2016-11-26T03:03:34.813Z,0
2016-11-26T03:04:50.696Z,0
2016-11-26T03:06:06.574Z,0
2016-11-26T03:07:21.154Z,0
2016-11-26T03:08:37.440Z,0
2016-11-26T03:09:53.809Z,0
2016-11-26T03:11:10.142Z,0
2016-11-26T03:12:26.012Z,0
2016-11-26T03:13:41.921Z,0
2016-11-26T03:14:57.068Z,0
2016-11-26T03:16:10.196Z,0
2016-11-26T03:17:26.235Z,0
2016-11-26T03:18:40.586Z,0
2016-11-26T03:19:55.629Z,0
2016-11-26T03:21:11.122Z,0
2016-11-26T03:22:25.665Z,0
2016-11-26T03:23:41.956Z,0
2016-11-26T03:24:57.860Z,0
2016-11-26T03:26:14.222Z,0
2016-11-26T03:27:30.957Z,0
2016-11-26T03:28:46.843Z,0
2016-11-26T03:30:03.932Z,0
2016-11-26T03:31:16.921Z,0
2016-11-26T03:32:30.415Z,0
2016-11-26T03:33:43.170Z,0
2016-11-26T03:34:59.304Z,0
2016-11-26T03:36:15.338Z,0
2016-11-26T03:37:31.381Z,0
2016-11-26T03:38:46.237Z,0
2016-11-26T03:40:00.508Z,0
2016-11-26T03:41:16.002Z,0
2016-11-26T03:42:31.754Z,0
2016-11-26T03:43:45.687Z,0
2016-11-26T03:45:01.181Z,0
2016-11-26T03:46:15.811Z,0
2016-11-26T03:47:30.769Z,0
2016-11-26T03:48:42.254Z,0
2016-11-26T03:49:54.161Z,0
2016-11-26T03:51:08.720Z,0
2016-11-26T03:52:24.100Z,0
2016-11-26T03:53:37.367Z,0
2016-11-26T03:54:50.334Z,0
2016-11-26T03:56:05.414Z,0
2016-11-26T03:57:21.592Z,0
2016-11-26T03:58:36.187Z,0
2016-11-26T03:59:52.026Z,0
2016-11-26T04:01:04.771Z,0
2016-11-26T04:02:19.767Z,0
2016-11-26T04:03:35.854Z,0
2016-11-26T04:04:46.567Z,0
2016-11-26T04:06:02.309Z,0
2016-11-26T04:07:17.913Z,0
2016-11-26T04:08:32.396Z,0
2016-11-26T04:09:49.008Z,0
2016-11-26T04:11:04.003Z,0
2016-11-26T04:12:18.963Z,0
2016-11-26T04:13:29.114Z,0
2016-11-26T04:14:42.344Z,0
2016-11-26T04:15:57.004Z,0
2016-11-26T04:17:08.992Z,0
2016-11-26T04:18:23.880Z,0
2016-11-26T04:19:40.009Z,0
2016-11-26T04:20:53.374Z,0
2016-11-26T04:22:08.464Z,0
2016-11-26T04:23:24.953Z,0
2016-11-26T04:24:42.207Z,0
2016-11-26T04:25:58.506Z,0
2016-11-26T04:27:13.063Z,0
2016-11-26T04:28:28.344Z,0
2016-11-26T04:29:41.505Z,0
2016-11-26T04:30:57.718Z,0
2016-11-26T04:32:10.893Z,0
2016-11-26T04:33:27.329Z,0
2016-11-26T04:34:40.565Z,0
2016-11-26T04:35:54.043Z,0
2016-11-26T04:37:09.574Z,0
2016-11-26T04:38:22.769Z,0
2016-11-26T04:39:35.763Z,0
2016-11-26T04:40:49.618Z,0
2016-11-26T04:42:05.682Z,0
2016-11-26T04:43:22.402Z,0
2016-11-26T04:44:36.285Z,0
2016-11-26T04:45:50.737Z,0
2016-11-26T04:47:05.496Z,0
2016-11-26T04:48:19.295Z,0
2016-11-26T04:49:32.281Z,0
2016-11-26T04:50:46.966Z,0
2016-11-26T04:52:01.724Z,0
2016-11-26T04:53:15.382Z,0
2016-11-26T04:54:31.005Z,0
2016-11-26T04:55:43.076Z,0
2016-11-26T04:56:58.141Z,0
2016-11-26T04:58:13.675Z,0
2016-11-26T04:59:28.476Z,0
2016-11-26T05:00:44.788Z,0
2016-11-26T05:02:00.207Z,0
2016-11-26T05:03:12.952Z,0
2016-11-26T05:04:26.008Z,0
2016-11-26T05:05:40.014Z,0
2016-11-26T05:06:53.224Z,0
2016-11-26T05:08:07.442Z,0
2016-11-26T05:09:23.601Z,0
2016-11-26T05:10:39.192Z,0
2016-11-26T05:11:52.672Z,0
2016-11-26T05:13:07.353Z,0
2016-11-26T05:14:22.499Z,0
2016-11-26T05:15:35.874Z,0
2016-11-26T05:16:51.100Z,0
2016-11-26T05:18:05.727Z,0
2016-11-26T05:19:19.276Z,0
2016-11-26T05:20:33.509Z,0
2016-11-26T05:21:47.956Z,0
2016-11-26T05:23:02.148Z,0
2016-11-26T05:24:17.678Z,0
2016-11-26T05:25:32.893Z,0
2016-11-26T05:26:47.592Z,0
2016-11-26T05:28:03.647Z,0
2016-11-26T05:29:18.088Z,0
2016-11-26T05:30:32.539Z,0
2016-11-26T05:31:46.574Z,0
2016-11-26T05:33:02.917Z,0
2016-11-26T05:34:17.328Z,0
2016-11-26T05:35:33.345Z,0
2016-11-26T05:36:49.796Z,0
2016-11-26T05:38:06.389Z,0
2016-11-26T05:39:19.214Z,0
2016-11-26T05:40:34.542Z,0
2016-11-26T05:41:48.920Z,0
2016-11-26T05:43:05.231Z,0
2016-11-26T05:44:21.605Z,0
2016-11-26T05:45:37.740Z,0
2016-11-26T05:46:52.178Z,0
2016-11-26T05:48:06.764Z,0
2016-11-26T05:49:22.815Z,0
2016-11-26T05:50:39.093Z,0
2016-11-26T05:51:54.815Z,0
2016-11-26T05:53:08.750Z,0
2016-11-26T05:54:24.950Z,0
2016-11-26T05:55:38.441Z,0
2016-11-26T05:56:52.398Z,0
2016-11-26T05:58:06.479Z,0
2016-11-26T05:59:21.606Z,0
2016-11-26T06:00:36.467Z,0
2016-11-26T06:01:50.894Z,0
2016-11-26T06:03:05.310Z,0
2016-11-26T06:04:20.384Z,0
2016-11-26T06:05:34.657Z,0
2016-11-26T06:06:47.727Z,0
2016-11-26T06:08:02.967Z,0
2016-11-26T06:09:17.821Z,0
2016-11-26T06:10:33.170Z,0
2016-11-26T06:11:48.197Z,0
2016-11-26T06:13:01.646Z,0
2016-11-26T06:14:16.795Z,0
2016-11-26T06:15:28.779Z,0
2016-11-26T06:16:45.692Z,0
2016-11-26T06:18:00.774Z,0
2016-11-26T06:19:15.626Z,0
2016-11-26T06:20:32.172Z,0
2016-11-26T06:21:47.641Z,0
2016-11-26T06:22:59.582Z,0
2016-11-26T06:24:14.098Z,0
2016-11-26T06:25:30.646Z,0
2016-11-26T06:26:46.741Z,0
2016-11-26T06:28:01.665Z,0
2016-11-26T06:29:17.027Z,0
2016-11-26T06:30:33.173Z,0
2016-11-26T06:31:47.470Z,0
2016-11-26T06:33:01.762Z,0
2016-11-26T06:34:16.623Z,0
2016-11-26T06:35:31.057Z,0
2016-11-26T06:36:45.467Z,0
2016-11-26T06:38:00.481Z,0
2016-11-26T06:39:14.891Z,0
2016-11-26T06:40:30.051Z,0
2016-11-26T06:41:43.227Z,0
2016-11-26T06:42:57.973Z,0
2016-11-26T06:44:11.779Z,0
2016-11-26T06:45:28.329Z,0
2016-11-26T06:46:45.118Z,0
2016-11-26T06:48:01.854Z,0
2016-11-26T06:49:16.941Z,0
2016-11-26T06:50:33.376Z,0
2016-11-26T06:51:47.372Z,0
2016-11-26T06:53:03.689Z,5
2016-11-26T06:54:18.400Z,5
2016-11-26T06:55:32.113Z,5
2016-11-26T06:56:48.583Z,5
2016-11-26T06:58:00.360Z,5
2016-11-26T06:59:15.119Z,5
2016-11-26T07:00:28.988Z,5
2016-11-26T07:01:44.162Z,10
2016-11-26T07:03:00.436Z,10
2016-11-26T07:04:15.481Z,10
2016-11-26T07:05:31.499Z,10
2016-11-26T07:06:46.211Z,10
2016-11-26T07:08:01.528Z,15
2016-11-26T07:09:16.483Z,15
2016-11-26T07:10:30.075Z,15
2016-11-26T07:11:43.622Z,15
2016-11-26T07:12:59.560Z,15
2016-11-26T07:14:12.860Z,15
2016-11-26T07:15:27.479Z,20
2016-11-26T07:16:41.162Z,20
2016-11-26T07:17:55.604Z,20
2016-11-26T07:19:10.770Z,25
2016-11-26T07:20:26.971Z,25
2016-11-26T07:21:41.891Z,30
2016-11-26T07:22:53.634Z,30
2016-11-26T07:24:08.987Z,35
2016-11-26T07:25:22.860Z,35
2016-11-26T07:26:37.625Z,40
2016-11-26T07:27:54.069Z,45
2016-11-26T07:29:07.516Z,45
2016-11-26T07:30:23.946Z,50
2016-11-26T07:31:39.076Z,50
2016-11-26T07:32:54.954Z,55
2016-11-26T07:34:10.106Z,60
2016-11-26T07:35:25.991Z,65
2016-11-26T07:36:42.261Z,75
2016-11-26T07:37:59.063Z,80
2016-11-26T07:39:14.423Z,85
2016-11-26T07:40:29.148Z,90
2016-11-26T07:41:45.699Z,90
2016-11-26T07:43:01.091Z,95
2016-11-26T07:44:14.565Z,100
2016-11-26T07:45:28.604Z,100
2016-11-26T07:46:41.676Z,105
2016-11-26T07:47:57.148Z,110
2016-11-26T07:49:12.430Z,120
2016-11-26T07:50:27.067Z,120
2016-11-26T07:51:41.095Z,125
2016-11-26T07:52:55.803Z,130
2016-11-26T07:54:12.051Z,125
2016-11-26T07:55:26.194Z,120
2016-11-26T07:56:41.019Z,125
2016-11-26T07:57:55.778Z,120
2016-11-26T07:59:06.016Z,125
2016-11-26T08:00:22.149Z,140
2016-11-26T08:01:36.426Z,150
2016-11-26T08:02:49.875Z,160
2016-11-26T08:04:02.004Z,170
2016-11-26T08:05:17.417Z,180
2016-11-26T08:06:32.744Z,195
2016-11-26T08:07:49.871Z,210
2016-11-26T08:09:06.272Z,230
2016-11-26T08:10:21.311Z,245
2016-11-26T08:11:37.639Z,220
2016-11-26T08:12:49.631Z,215
2016-11-26T08:14:02.863Z,225
2016-11-26T08:15:19.399Z,245
2016-11-26T08:16:35.893Z,265
2016-11-26T08:17:52.464Z,280
2016-11-26T08:19:08.932Z,290
2016-11-26T08:20:22.425Z,300
2016-11-26T08:21:36.681Z,315
2016-11-26T08:22:51.672Z,320
2016-11-26T08:24:05.108Z,330
2016-11-26T08:25:21.760Z,360
2016-11-26T08:26:36.727Z,365
2016-11-26T08:27:53.423Z,380
2016-11-26T08:29:10.122Z,390
2016-11-26T08:30:23.931Z,400
2016-11-26T08:31:39.169Z,420
2016-11-26T08:32:53.142Z,420
2016-11-26T08:34:08.378Z,445
2016-11-26T08:35:22.801Z,515
2016-11-26T08:36:38.018Z,485
2016-11-26T08:37:53.079Z,525
2016-11-26T08:39:07.461Z,570
2016-11-26T08:40:21.096Z,510
2016-11-26T08:41:34.919Z,475
2016-11-26T08:42:51.642Z,475
2016-11-26T08:44:08.351Z,465
2016-11-26T08:45:22.006Z,490
2016-11-26T08:46:36.045Z,540
2016-11-26T08:47:50.824Z,465
2016-11-26T08:49:05.697Z,535
2016-11-26T08:50:20.321Z,560
2016-11-26T08:51:36.019Z,545
2016-11-26T08:52:49.636Z,500
2016-11-26T08:54:05.015Z,455
2016-11-26T08:55:20.931Z,480
2016-11-26T08:56:33.966Z,485
2016-11-26T08:57:49.593Z,600
2016-11-26T08:59:05.341Z,690
2016-11-26T09:00:20.850Z,890
2016-11-26T09:01:37.031Z,800
2016-11-26T09:02:53.076Z,860
2016-11-26T09:04:09.372Z,900
2016-11-26T09:05:24.911Z,815
2016-11-26T09:06:41.629Z,830
2016-11-26T09:07:56.506Z,700
2016-11-26T09:09:11.464Z,580
2016-11-26T09:10:27.968Z,660
2016-11-26T09:11:44.603Z,680
2016-11-26T09:12:59.350Z,775
2016-11-26T09:14:14.213Z,700
2016-11-26T09:15:30.919Z,620
2016-11-26T09:16:47.221Z,545
2016-11-26T09:17:59.116Z,535
2016-11-26T09:19:13.393Z,470
2016-11-26T09:20:25.279Z,385
2016-11-26T09:21:40.372Z,340
2016-11-26T09:22:55.329Z,340
2016-11-26T09:24:09.753Z,425
2016-11-26T09:25:25.435Z,565
2016-11-26T09:26:41.332Z,685
2016-11-26T09:27:57.485Z,705
2016-11-26T09:29:12.582Z,735
2016-11-26T09:30:27.731Z,735
2016-11-26T09:31:40.805Z,695
2016-11-26T09:32:56.156Z,690
2016-11-26T09:34:12.881Z,735
2016-11-26T09:35:26.324Z,825
2016-11-26T09:36:42.550Z,820
2016-11-26T09:37:58.455Z,760
2016-11-26T09:39:12.039Z,725
2016-11-26T09:40:26.798Z,745
2016-11-26T09:41:40.607Z,775
2016-11-26T09:42:55.296Z,975
2016-11-26T09:44:09.769Z,1075
2016-11-26T09:45:25.929Z,1155
2016-11-26T09:46:41.810Z,1200
2016-11-26T09:47:58.210Z,1135
2016-11-26T09:49:12.823Z,1070
2016-11-26T09:50:29.290Z,1165
2016-11-26T09:51:45.995Z,1240
2016-11-26T09:53:00.604Z,1280
2016-11-26T09:54:16.773Z,1315
2016-11-26T09:55:31.834Z,1370
2016-11-26T09:56:48.401Z,1335
2016-11-26T09:58:05.159Z,1260
2016-11-26T09:59:20.247Z,1235
2016-11-26T10:00:36.745Z,1150
2016-11-26T10:01:50.325Z,1185
2016-11-26T10:03:06.843Z,1210
2016-11-26T10:04:19.024Z,1235
2016-11-26T10:05:32.448Z,1220
2016-11-26T10:06:47.552Z,1030
2016-11-26T10:08:03.857Z,1190
2016-11-26T10:09:18.282Z,1145
2016-11-26T10:10:33.379Z,1145
2016-11-26T10:11:49.789Z,1050
2016-11-26T10:13:03.283Z,965
2016-11-26T10:14:17.743Z,905
2016-11-26T10:15:34.679Z,920
2016-11-26T10:16:50.947Z,985
2016-11-26T10:18:00.057Z,1045
2016-11-26T10:19:12.114Z,1040
2016-11-26T10:20:28.831Z,1060
2016-11-26T10:21:45.181Z,1080
2016-11-26T10:22:59.641Z,1075
2016-11-26T10:24:14.890Z,1075
2016-11-26T10:25:28.339Z,1125
2016-11-26T10:26:42.150Z,1285
2016-11-26T10:27:56.516Z,1200
2016-11-26T10:29:13.061Z,1090
2016-11-26T10:30:29.567Z,960
2016-11-26T10:31:44.733Z,915
2016-11-26T10:32:58.047Z,885
2016-11-26T10:34:11.100Z,835
2016-11-26T10:35:27.255Z,605
2016-11-26T10:36:40.018Z,395
2016-11-26T10:37:55.669Z,365
2016-11-26T10:39:10.760Z,355
2016-11-26T10:40:25.665Z,350
2016-11-26T10:41:41.996Z,345
2016-11-26T10:42:56.949Z,365
2016-11-26T10:44:13.898Z,365
2016-11-26T10:45:25.675Z,480
2016-11-26T10:46:42.412Z,450
2016-11-26T10:47:55.455Z,350
2016-11-26T10:49:10.170Z,335
2016-11-26T10:50:24.855Z,320
2016-11-26T10:51:41.315Z,315
2016-11-26T10:52:57.374Z,315
2016-11-26T10:54:12.246Z,315
2016-11-26T10:55:26.775Z,315
2016-11-26T10:56:40.505Z,320
2016-11-26T10:57:56.303Z,310
2016-11-26T10:59:09.372Z,305
2016-11-26T11:00:24.460Z,305
2016-11-26T11:01:38.115Z,300
2016-11-26T11:02:50.870Z,295
2016-11-26T11:04:04.005Z,285
2016-11-26T11:05:20.240Z,275
2016-11-26T11:06:36.827Z,270
2016-11-26T11:07:53.152Z,265
2016-11-26T11:09:06.439Z,255
2016-11-26T11:10:21.991Z,250
2016-11-26T11:11:38.015Z,230
2016-11-26T11:12:53.861Z,215
2016-11-26T11:14:10.008Z,200
2016-11-26T11:15:26.419Z,195
2016-11-26T11:16:40.948Z,185
2016-11-26T11:17:52.752Z,180
2016-11-26T11:19:08.247Z,170
2016-11-26T11:20:24.560Z,165
2016-11-26T11:21:39.593Z,160
2016-11-26T11:22:51.522Z,160
2016-11-26T11:24:07.827Z,150
2016-11-26T11:25:24.954Z,150
2016-11-26T11:26:39.791Z,150
2016-11-26T11:27:54.970Z,155
2016-11-26T11:29:11.817Z,150
2016-11-26T11:30:26.882Z,145
2016-11-26T11:31:41.572Z,145
2016-11-26T11:32:58.160Z,130
2016-11-26T11:34:12.855Z,120
2016-11-26T11:35:27.869Z,120
2016-11-26T11:36:44.582Z,115
2016-11-26T11:37:57.586Z,120
2016-11-26T11:39:13.738Z,125
2016-11-26T11:40:28.994Z,120
2016-11-26T11:41:44.648Z,115
2016-11-26T11:43:01.658Z,110
2016-11-26T11:44:17.773Z,115
2016-11-26T11:45:32.043Z,115
2016-11-26T11:46:45.184Z,110
2016-11-26T11:47:58.911Z,105
2016-11-26T11:49:15.462Z,100
2016-11-26T11:50:31.354Z,100
2016-11-26T11:51:46.017Z,105
2016-11-26T11:52:59.336Z,110
2016-11-26T11:54:14.374Z,115
2016-11-26T11:55:30.910Z,110
2016-11-26T11:56:45.605Z,110
2016-11-26T11:58:02.118Z,110
2016-11-26T11:59:16.447Z,120
2016-11-26T12:00:31.195Z,120
2016-11-26T12:01:47.221Z,120
2016-11-26T12:03:01.886Z,125
2016-11-26T12:04:14.866Z,120
2016-11-26T12:05:31.412Z,125
2016-11-26T12:06:43.368Z,125
2016-11-26T12:07:59.507Z,120
2016-11-26T12:09:12.928Z,120
2016-11-26T12:10:26.493Z,120
2016-11-26T12:11:41.600Z,120
2016-11-26T12:12:55.163Z,125
2016-11-26T12:14:08.637Z,125
2016-11-26T12:15:23.258Z,130
2016-11-26T12:16:36.402Z,130
2016-11-26T12:17:50.807Z,125
2016-11-26T12:19:07.068Z,130
2016-11-26T12:20:20.196Z,130
2016-11-26T12:21:35.051Z,135
2016-11-26T12:22:50.980Z,135
2016-11-26T12:24:07.071Z,140
2016-11-26T12:25:23.268Z,140
2016-11-26T12:26:40.147Z,135
2016-11-26T12:27:57.311Z,135
2016-11-26T12:29:09.153Z,135
2016-11-26T12:30:22.954Z,135
2016-11-26T12:31:37.985Z,135
2016-11-26T12:32:53.324Z,140
2016-11-26T12:34:09.273Z,145
2016-11-26T12:35:25.823Z,145
2016-11-26T12:36:40.842Z,155
2016-11-26T12:37:56.333Z,160
2016-11-26T12:39:11.154Z,165
2016-11-26T12:40:25.566Z,170
2016-11-26T12:41:41.755Z,175
2016-11-26T12:42:55.780Z,175
2016-11-26T12:44:09.013Z,170
2016-11-26T12:45:24.590Z,165
2016-11-26T12:46:41.357Z,165
2016-11-26T12:47:57.494Z,160
2016-11-26T12:49:12.105Z,155
2016-11-26T12:50:28.882Z,160
2016-11-26T12:51:44.077Z,160
2016-11-26T12:53:00.621Z,160
2016-11-26T12:54:15.359Z,160
2016-11-26T12:55:29.683Z,160
2016-11-26T12:56:45.841Z,155
2016-11-26T12:57:59.304Z,150
2016-11-26T12:59:15.649Z,150
2016-11-26T13:00:32.533Z,145
2016-11-26T13:01:48.820Z,140
2016-11-26T13:03:05.587Z,140
2016-11-26T13:04:22.280Z,140
2016-11-26T13:05:37.388Z,135
2016-11-26T13:06:52.172Z,135
2016-11-26T13:08:06.996Z,135
2016-11-26T13:09:20.228Z,135
2016-11-26T13:10:37.069Z,135
2016-11-26T13:11:50.054Z,135
2016-11-26T13:13:04.695Z,135
2016-11-26T13:14:19.636Z,135
2016-11-26T13:15:32.845Z,135
2016-11-26T13:16:48.592Z,130
2016-11-26T13:18:02.449Z,130
2016-11-26T13:19:17.369Z,130
2016-11-26T13:20:31.863Z,130
2016-11-26T13:21:46.856Z,130
2016-11-26T13:23:00.370Z,130
2016-11-26T13:24:14.979Z,130
2016-11-26T13:25:29.601Z,130
2016-11-26T13:26:44.039Z,130
2016-11-26T13:27:58.996Z,130
2016-11-26T13:29:13.363Z,130
2016-11-26T13:30:28.740Z,130
2016-11-26T13:31:42.154Z,125
2016-11-26T13:32:56.590Z,125
2016-11-26T13:34:13.440Z,125
2016-11-26T13:35:25.546Z,125
2016-11-26T13:36:42.405Z,125
2016-11-26T13:37:55.170Z,125
2016-11-26T13:39:10.575Z,125
2016-11-26T13:40:26.503Z,125
2016-11-26T13:41:38.325Z,120
2016-11-26T13:42:53.667Z,120
2016-11-26T13:44:07.573Z,120
2016-11-26T13:45:24.376Z,120
2016-11-26T13:46:39.051Z,120
2016-11-26T13:47:55.350Z,115
2016-11-26T13:49:12.620Z,115
2016-11-26T13:50:28.040Z,115
2016-11-26T13:51:44.156Z,110
2016-11-26T13:53:00.399Z,110
2016-11-26T13:54:15.641Z,110
2016-11-26T13:55:31.143Z,110
2016-11-26T13:56:45.996Z,110
2016-11-26T13:57:59.095Z,105
2016-11-26T13:59:13.532Z,105
2016-11-26T14:00:29.959Z,105
2016-11-26T14:01:44.556Z,105
2016-11-26T14:02:55.270Z,100
2016-11-26T14:04:08.085Z,100
2016-11-26T14:05:19.893Z,100
2016-11-26T14:06:35.366Z,100
2016-11-26T14:07:52.147Z,100
2016-11-26T14:09:05.358Z,95
2016-11-26T14:10:21.314Z,95
2016-11-26T14:11:35.630Z,95
2016-11-26T14:12:50.632Z,95
2016-11-26T14:14:07.233Z,95
2016-11-26T14:15:22.271Z,95
2016-11-26T14:16:38.458Z,95
2016-11-26T14:17:54.796Z,95
2016-11-26T14:19:10.402Z,95
2016-11-26T14:20:25.690Z,95
2016-11-26T14:21:40.535Z,90
2016-11-26T14:22:55.852Z,90
2016-11-26T14:24:11.995Z,90
2016-11-26T14:25:24.812Z,90
2016-11-26T14:26:41.121Z,85
2016-11-26T14:27:56.280Z,85
2016-11-26T14:29:11.753Z,85
2016-11-26T14:30:26.483Z,80
2016-11-26T14:31:42.368Z,80
2016-11-26T14:32:58.412Z,80
2016-11-26T14:34:14.466Z,75
2016-11-26T14:35:30.907Z,75
2016-11-26T14:36:46.474Z,75
2016-11-26T14:38:03.413Z,70
2016-11-26T14:39:17.699Z,70
2016-11-26T14:40:31.340Z,65
2016-11-26T14:41:47.876Z,65
2016-11-26T14:43:01.719Z,65
2016-11-26T14:44:15.746Z,60
2016-11-26T14:45:30.904Z,60
2016-11-26T14:46:47.644Z,55
2016-11-26T14:48:04.076Z,50
2016-11-26T14:49:18.903Z,50
2016-11-26T14:50:35.556Z,45
2016-11-26T14:51:50.278Z,45
2016-11-26T14:53:05.373Z,45
2016-11-26T14:54:20.722Z,40
2016-11-26T14:55:38.004Z,40
2016-11-26T14:56:53.742Z,35
2016-11-26T14:58:08.046Z,35
2016-11-26T14:59:24.828Z,30
2016-11-26T15:00:39.728Z,30
2016-11-26T15:01:55.867Z,30
2016-11-26T15:03:11.740Z,25
2016-11-26T15:04:26.982Z,25
2016-11-26T15:05:41.434Z,25
2016-11-26T15:06:55.075Z,20
2016-11-26T15:08:09.545Z,20
2016-11-26T15:09:26.521Z,20
2016-11-26T15:10:42.448Z,20
2016-11-26T15:11:57.407Z,15
2016-11-26T15:13:12.417Z,15
2016-11-26T15:14:24.912Z,15
2016-11-26T15:15:40.711Z,15
2016-11-26T15:16:55.959Z,10
2016-11-26T15:18:11.365Z,10
2016-11-26T15:19:26.132Z,10
2016-11-26T15:20:41.000Z,10
2016-11-26T15:21:56.037Z,10
2016-11-26T15:23:11.939Z,10
2016-11-26T15:24:28.874Z,10
2016-11-26T15:25:44.767Z,5
2016-11-26T15:26:59.446Z,5
2016-11-26T15:28:13.181Z,5
2016-11-26T15:29:27.630Z,5
2016-11-26T15:30:43.991Z,5
2016-11-26T15:31:58.842Z,5
2016-11-26T15:33:13.282Z,5
2016-11-26T15:34:28.772Z,5
2016-11-26T15:35:43.494Z,5
2016-11-26T15:36:56.723Z,0
2016-11-26T15:38:13.076Z,0
2016-11-26T15:39:27.776Z,0
2016-11-26T15:40:44.282Z,0
2016-11-26T15:42:01.013Z,0
2016-11-26T15:43:17.575Z,0
2016-11-26T15:44:30.689Z,0
2016-11-26T15:45:46.703Z,0
2016-11-26T15:47:03.631Z,0
2016-11-26T15:48:19.775Z,0
2016-11-26T15:49:35.023Z,0
2016-11-26T15:50:51.173Z,0
2016-11-26T15:52:06.476Z,0
2016-11-26T15:53:19.486Z,0
2016-11-26T15:54:35.053Z,0
2016-11-26T15:55:48.818Z,0
2016-11-26T15:57:04.178Z,0
2016-11-26T15:58:17.350Z,0
2016-11-26T15:59:32.203Z,0
2016-11-26T16:00:48.558Z,0
2016-11-26T16:02:03.482Z,0
2016-11-26T16:03:20.591Z,0
2016-11-26T16:04:35.688Z,0
2016-11-26T16:05:50.648Z,0
2016-11-26T16:07:06.326Z,0
2016-11-26T16:08:20.671Z,0
2016-11-26T16:09:35.459Z,0
2016-11-26T16:10:48.638Z,0
2016-11-26T16:12:04.852Z,0
2016-11-26T16:13:21.461Z,0
2016-11-26T16:14:37.817Z,0
2016-11-26T16:15:54.965Z,0
2016-11-26T16:17:08.422Z,0
2016-11-26T16:18:24.517Z,0
2016-11-26T16:19:39.204Z,0
2016-11-26T16:20:55.970Z,0
2016-11-26T16:22:11.198Z,0
2016-11-26T16:23:27.432Z,0
2016-11-26T16:24:43.951Z,0
2016-11-26T16:25:59.430Z,0
2016-11-26T16:27:14.261Z,0
2016-11-26T16:28:29.788Z,0
2016-11-26T16:29:46.529Z,0
2016-11-26T16:31:00.737Z,0
2016-11-26T16:32:15.886Z,0
2016-11-26T16:33:31.302Z,0
2016-11-26T16:34:46.324Z,0
2016-11-26T16:36:00.792Z,0
2016-11-26T16:37:15.253Z,0
2016-11-26T16:38:30.633Z,0
2016-11-26T16:39:46.960Z,0
2016-11-26T16:41:03.761Z,0
2016-11-26T16:42:17.150Z,0
2016-11-26T16:43:32.017Z,0
2016-11-26T16:44:48.640Z,0
2016-11-26T16:46:05.727Z,0
2016-11-26T16:47:20.149Z,0
2016-11-26T16:48:34.748Z,0
2016-11-26T16:49:49.546Z,0
2016-11-26T16:51:02.938Z,0
2016-11-26T16:52:18.026Z,0
2016-11-26T16:53:35.153Z,0
2016-11-26T16:54:48.886Z,0
2016-11-26T16:56:00.756Z,0
2016-11-26T16:57:17.063Z,0
2016-11-26T16:58:31.625Z,0
2016-11-26T16:59:44.969Z,0
2016-11-26T17:01:00.064Z,0
2016-11-26T17:02:13.344Z,0
2016-11-26T17:03:26.301Z,0
2016-11-26T17:04:42.247Z,0
2016-11-26T17:05:58.522Z,0
2016-11-26T17:07:12.567Z,0
2016-11-26T17:08:26.157Z,0
2016-11-26T17:09:40.755Z,0
2016-11-26T17:10:56.427Z,0
2016-11-26T17:12:12.722Z,0
2016-11-26T17:13:29.300Z,0
2016-11-26T17:14:44.381Z,0
2016-11-26T17:15:59.140Z,0
2016-11-26T17:17:13.833Z,0
2016-11-26T17:18:30.267Z,0
2016-11-26T17:19:43.692Z,0
2016-11-26T17:20:59.917Z,0
2016-11-26T17:22:14.539Z,0
2016-11-26T17:23:31.160Z,0
2016-11-26T17:24:46.167Z,0
2016-11-26T17:26:02.494Z,0
2016-11-26T17:27:17.258Z,0
2016-11-26T17:28:32.236Z,0
2016-11-26T17:29:47.984Z,0
2016-11-26T17:31:03.097Z,0
2016-11-26T17:32:18.971Z,0
2016-11-26T17:33:33.896Z,0
2016-11-26T17:34:47.452Z,0
2016-11-26T17:36:04.314Z,0
2016-11-26T17:37:19.686Z,0
2016-11-26T17:38:34.782Z,0
2016-11-26T17:39:48.145Z,0
2016-11-26T17:41:02.614Z,0
2016-11-26T17:42:18.931Z,0
2016-11-26T17:43:32.974Z,0
2016-11-26T17:44:46.611Z,0
2016-11-26T17:46:00.720Z,0
2016-11-26T17:47:17.295Z,0
2016-11-26T17:48:32.060Z,0
2016-11-26T17:49:47.839Z,0
2016-11-26T17:51:02.490Z,0
2016-11-26T17:52:18.484Z,0
2016-11-26T17:53:33.984Z,0
2016-11-26T17:54:49.289Z,0